Time;durP1;ratioP1;P1;durP2;ratioP2;P2;SDS_P1;SDS_P2;PMS_P1;PMS_P2;Temp;Humidity;BMP_temperature;BMP_pressure;BME280_temperature;BME280_humidity;BME280_pressure;Samples;Min_cycle;Max_cycle;Signal;HPM_P1;HPM_P2
2023/02/27 00:00:18;;;;;;;17.20;10.00;;;;;;;0.97;61.06;101110.41;110564;1264;21984;-80
2023/02/27 00:03:22;;;;;;;19.30;9.80;;;;;;;0.94;61.27;101117.23;111309;1257;21976;-80
2023/02/27 00:06:00;;;;;;;19.00;10.60;;;;;;;0.96;61.38;101119.81;110588;1262;23720;-81
2023/02/27 00:08:37;;;;;;;18.60;9.90;;;;;;;1.01;61.49;101125.02;110707;1261;21969;-80
2023/02/27 00:11:14;;;;;;;17.00;9.80;;;;;;;1.06;61.58;101130.05;110875;1261;21975;-78
2023/02/27 00:14:02;;;;;;;23.40;10.00;;;;;;;1.10;61.66;101130.81;110439;1261;23698;-81
2023/02/27 00:16:49;;;;;;;20.10;10.70;;;;;;;1.12;61.67;101135.65;110884;1261;21978;-80
2023/02/27 00:19:22;;;;;;;17.20;10.40;;;;;;;1.13;61.71;101136.52;110194;1266;21971;-79
2023/02/27 00:21:54;;;;;;;24.90;11.70;;;;;;;1.16;61.88;101137.40;109880;1267;22294;-79
2023/02/27 00:24:28;;;;;;;18.20;10.90;;;;;;;1.18;61.82;101135.20;110015;1260;22161;-79
2023/02/27 00:27:01;;;;;;;20.00;9.90;;;;;;;1.20;62.00;101131.96;110437;1266;22439;-79
2023/02/27 00:29:38;;;;;;;21.10;11.70;;;;;;;1.21;62.10;101137.47;110277;1262;23693;-80
2023/02/27 00:32:16;;;;;;;20.30;10.80;;;;;;;1.20;62.17;101133.84;109856;1267;22431;-80
2023/02/27 00:34:52;;;;;;;18.00;10.20;;;;;;;1.18;62.19;101133.66;110090;1267;21993;-80
2023/02/27 00:37:26;;;;;;;20.30;10.50;;;;;;;1.15;62.32;101133.63;109704;1256;23069;-80
2023/02/27 00:40:04;;;;;;;19.10;10.50;;;;;;;1.16;62.41;101139.80;110213;1267;21990;-79
2023/02/27 00:42:40;;;;;;;19.40;11.30;;;;;;;1.17;62.54;101137.59;109160;1274;22282;-79
2023/02/27 00:45:20;;;;;;;18.00;10.30;;;;;;;1.18;62.66;101137.08;109354;1274;21987;-79
2023/02/27 00:48:01;;;;;;;20.00;9.60;;;;;;;1.17;62.76;101137.75;109376;1274;21991;-80
2023/02/27 00:50:38;;;;;;;23.30;11.40;;;;;;;1.16;62.66;101138.77;109269;1274;21994;-79
2023/02/27 00:53:21;;;;;;;17.80;9.90;;;;;;;1.16;62.80;101139.81;109738;1270;22080;-78
2023/02/27 00:56:00;;;;;;;17.60;10.40;;;;;;;1.16;62.87;101139.29;110106;1264;23829;-79
2023/02/27 00:58:58;;;;;;;15.30;9.50;;;;;;;1.13;63.02;101137.87;110288;1263;21991;-79
2023/02/27 01:01:36;;;;;;;15.70;9.50;;;;;;;1.13;63.05;101137.70;110858;1258;23600;-81
2023/02/27 01:04:13;;;;;;;15.10;9.40;;;;;;;1.14;63.12;101133.42;110660;1262;23629;-79
2023/02/27 01:07:02;;;;;;;16.10;9.40;;;;;;;1.16;63.27;101136.55;110457;1262;22245;-79
2023/02/27 01:09:39;;;;;;;13.60;8.60;;;;;;;1.16;63.38;101135.17;110142;1267;22036;-81
2023/02/27 01:12:13;;;;;;;16.70;9.60;;;;;;;1.15;63.34;101137.03;110112;1267;22493;-80
2023/02/27 01:14:46;;;;;;;13.10;7.60;;;;;;;1.14;63.40;101134.64;109605;1272;21997;-80
2023/02/27 01:17:20;;;;;;;13.70;8.20;;;;;;;1.13;63.54;101129.48;109485;1270;22062;-79
2023/02/27 01:19:53;;;;;;;17.50;7.60;;;;;;;1.14;63.58;101129.48;109262;1277;21988;-79
2023/02/27 01:22:29;;;;;;;12.20;7.90;;;;;;;1.16;63.61;101129.85;109008;1275;23718;-79
2023/02/27 01:25:07;;;;;;;10.50;6.80;;;;;;;1.17;63.79;101127.64;109093;1275;21989;-80
2023/02/27 01:27:49;;;;;;;11.80;7.80;;;;;;;1.19;63.68;101126.98;109352;1273;22022;-80
2023/02/27 01:30:22;;;;;;;13.20;8.20;;;;;;;1.20;63.87;101129.05;109605;1273;22012;-80
2023/02/27 01:33:05;;;;;;;11.70;6.80;;;;;;;1.18;63.90;101130.74;109797;1268;21978;-80
2023/02/27 01:35:44;;;;;;;13.40;7.40;;;;;;;1.16;63.89;101131.74;110229;1268;23745;-80
2023/02/27 01:38:20;;;;;;;13.20;8.50;;;;;;;1.15;63.88;101129.50;110240;1262;23704;-81
2023/02/27 01:41:06;;;;;;;13.90;7.70;;;;;;;1.14;63.99;101132.58;110747;1262;23039;-81
2023/02/27 01:44:01;;;;;;;16.80;8.50;;;;;;;1.16;64.09;101134.31;110506;1262;21960;-79
2023/02/27 01:46:46;;;;;;;12.60;7.70;;;;;;;1.17;64.20;101138.45;110242;1263;24388;-80
2023/02/27 01:49:32;;;;;;;12.60;7.30;;;;;;;1.17;64.24;101136.55;109931;1268;23078;-80
2023/02/27 01:52:14;;;;;;;12.20;7.80;;;;;;;1.18;64.26;101140.17;109458;1273;21982;-79
2023/02/27 01:55:00;;;;;;;14.30;8.80;;;;;;;1.17;64.26;101143.58;109202;1273;23638;-80
2023/02/27 01:57:36;;;;;;;12.50;7.80;;;;;;;1.13;64.21;101147.14;109232;1275;24338;-80
2023/02/27 02:00:16;;;;;;;11.20;6.80;;;;;;;1.12;64.35;101148.31;108902;1278;23846;-79
2023/02/27 02:03:09;;;;;;;10.90;7.30;;;;;;;1.12;64.48;101148.34;108897;1280;23243;-79
2023/02/27 02:05:49;;;;;;;14.70;7.90;;;;;;;1.11;64.48;101150.70;109194;1277;22975;-80
2023/02/27 02:08:26;;;;;;;11.80;6.80;;;;;;;1.12;64.48;101153.30;109006;1277;22086;-79
2023/02/27 02:11:04;;;;;;;13.10;7.70;;;;;;;1.13;64.44;101156.05;109258;1272;22821;-79
2023/02/27 02:13:48;;;;;;;;;;;;;;;;;;;;;
2023/02/27 02:17:04;;;;;;;11.20;6.40;;;;;;;1.13;64.73;101157.58;110171;1266;22000;-83
2023/02/27 02:20:33;;;;;;;13.00;7.20;;;;;;;1.06;64.70;101155.27;110937;1261;22016;-79
2023/02/27 02:23:29;;;;;;;11.40;6.30;;;;;;;1.02;64.88;101161.02;110701;1261;22282;-78
2023/02/27 02:26:32;;;;;;;10.30;6.30;;;;;;;0.99;64.98;101160.98;110615;1261;21990;-78
2023/02/27 02:29:55;;;;;;;14.10;6.90;;;;;;;0.96;64.98;101162.16;109346;1273;22087;-79
2023/02/27 02:33:29;;;;;;;13.50;6.40;;;;;;;0.93;65.16;101163.48;109396;1274;23814;-79
2023/02/27 02:36:53;;;;;;;10.40;6.00;;;;;;;0.92;65.22;101168.93;109338;1273;22033;-79
2023/02/27 02:39:56;;;;;;;14.10;7.10;;;;;;;0.91;65.28;101167.90;109961;1268;23720;-78
2023/02/27 02:43:19;;;;;;;12.60;8.50;;;;;;;0.91;65.32;101172.02;110029;1268;23683;-77
2023/02/27 02:46:17;;;;;;;13.40;7.70;;;;;;;0.91;65.49;101169.27;109942;1268;23739;-78
2023/02/27 02:49:09;;;;;;;16.60;8.80;;;;;;;0.94;65.53;101171.20;109619;1264;22059;-79
2023/02/27 02:52:33;;;;;;;14.80;8.00;;;;;;;0.95;65.53;101174.83;109406;1272;21992;-78
2023/02/27 02:55:37;;;;;;;15.60;9.50;;;;;;;0.92;65.52;101175.63;109854;1268;22055;-79
2023/02/27 02:58:30;;;;;;;17.10;7.30;;;;;;;0.89;65.55;101175.92;110253;1268;22468;-79
2023/02/27 03:01:25;;;;;;;11.40;6.90;;;;;;;0.90;65.54;101181.42;109610;1271;22490;-78
2023/02/27 03:04:46;;;;;;;18.10;8.40;;;;;;;0.90;65.56;101184.85;109109;1276;22841;-79
2023/02/27 03:07:32;;;;;;;17.90;7.00;;;;;;;0.88;65.47;101184.48;109010;1278;21980;-78
2023/02/27 03:10:20;;;;;;;12.00;6.80;;;;;;;0.86;65.59;101182.05;108972;1278;21995;-80
2023/02/27 03:13:02;;;;;;;9.50;5.50;;;;;;;0.85;65.72;101182.20;108931;1278;22025;-79
2023/02/27 03:15:47;;;;;;;11.70;6.40;;;;;;;0.86;65.62;101187.52;108980;1273;22002;-82
2023/02/27 03:18:32;;;;;;;11.40;6.30;;;;;;;0.87;65.82;101191.67;109173;1275;22087;-80
2023/02/27 03:21:17;;;;;;;11.20;6.20;;;;;;;0.87;65.78;101192.68;109092;1278;22033;-80
2023/02/27 03:24:09;;;;;;;10.80;6.70;;;;;;;0.85;65.79;101193.52;109354;1274;23042;-79
2023/02/27 03:26:49;;;;;;;14.90;6.60;;;;;;;0.84;65.72;101194.02;109320;1274;22429;-79
2023/02/27 03:29:55;;;;;;;18.80;8.20;;;;;;;0.85;65.74;101197.80;109118;1274;22008;-80
2023/02/27 03:32:49;;;;;;;14.70;7.30;;;;;;;0.84;65.82;101199.33;108767;1278;22981;-79
2023/02/27 03:35:48;;;;;;;9.70;5.90;;;;;;;0.81;65.69;101213.52;108601;1279;22004;-80
2023/02/27 03:38:37;;;;;;;11.50;6.30;;;;;;;0.78;65.71;101209.35;109401;1266;23728;-80
2023/02/27 03:41:42;;;;;;;10.60;6.70;;;;;;;0.77;65.87;101212.94;109911;1260;22009;-79
2023/02/27 03:45:13;;;;;;;9.50;5.70;;;;;;;0.78;65.95;101216.21;110325;1266;24309;-78
2023/02/27 03:47:50;;;;;;;11.50;6.30;;;;;;;0.77;65.92;101219.95;110732;1263;23040;-81
2023/02/27 03:50:40;;;;;;;;;;;;;;;0.78;65.89;101218.44;110233;1262;22052;-77
2023/02/27 03:53:52;;;;;;;11.00;6.00;;;;;;;0.72;66.04;101223.48;110248;1262;21981;-79
2023/02/27 03:56:52;;;;;;;10.00;6.30;;;;;;;0.70;66.06;101224.98;110213;1262;24448;-80
2023/02/27 03:59:44;;;;;;;9.60;6.60;;;;;;;0.72;66.10;101229.47;110660;1262;21995;-81
2023/02/27 04:02:23;;;;;;;11.20;6.40;;;;;;;0.74;66.14;101232.06;109753;1265;21975;-81
2023/02/27 04:04:59;;;;;;;14.20;8.70;;;;;;;0.75;66.20;101234.30;109756;1269;22314;-80
2023/02/27 04:08:24;;;;;;;9.90;6.40;;;;;;;0.74;66.10;101233.77;109754;1269;22102;-80
2023/02/27 04:11:23;;;;;;;16.90;7.40;;;;;;;0.72;66.15;101239.39;110030;1269;22177;-80
2023/02/27 04:14:53;;;;;;;14.60;8.10;;;;;;;0.71;66.20;101239.55;110039;1269;21985;-81
2023/02/27 04:17:29;;;;;;;19.80;17.30;;;;;;;0.69;66.22;101239.69;109425;1275;24324;-78
2023/02/27 04:20:12;;;;;;;9.70;6.50;;;;;;;0.69;66.28;101240.55;109398;1268;22466;-79
2023/02/27 04:22:57;;;;;;;10.70;7.20;;;;;;;0.72;66.29;101245.22;109266;1274;23653;-78
2023/02/27 04:25:50;;;;;;;10.10;5.50;;;;;;;0.73;66.21;101247.81;109140;1275;22045;-80
2023/02/27 04:29:06;;;;;;;8.70;5.80;;;;;;;0.72;66.24;101255.34;109477;1273;22004;-79
2023/02/27 04:32:24;;;;;;;8.80;5.40;;;;;;;0.68;66.19;101257.66;109134;1280;21994;-81
2023/02/27 04:35:40;;;;;;;7.80;5.30;;;;;;;0.66;66.44;101264.83;108951;1281;21995;-82
2023/02/27 04:38:36;;;;;;;10.30;7.00;;;;;;;0.65;66.46;101265.99;108973;1281;24334;-80
2023/02/27 04:41:26;;;;;;;7.10;4.80;;;;;;;0.64;66.42;101263.77;108999;1277;21993;-81
2023/02/27 04:44:16;;;;;;;6.40;4.90;;;;;;;0.65;66.51;101264.81;109106;1277;22014;-80
2023/02/27 04:46:54;;;;;;;10.10;5.50;;;;;;;0.62;66.53;101264.77;109129;1274;22016;-80
2023/02/27 04:49:57;;;;;;;16.10;8.00;;;;;;;0.59;66.40;101270.02;109278;1276;22152;-81
2023/02/27 04:53:03;;;;;;;15.50;8.30;;;;;;;0.57;66.73;101270.66;109301;1271;23107;-80
2023/02/27 04:55:57;;;;;;;13.80;9.40;;;;;;;0.58;66.72;101271.70;110166;1265;21976;-78
2023/02/27 04:58:49;;;;;;;13.20;9.30;;;;;;;0.59;66.70;101271.40;110137;1263;23624;-78
2023/02/27 05:01:45;;;;;;;10.10;7.30;;;;;;;0.58;66.74;101272.39;110512;1264;23654;-81
2023/02/27 05:04:49;;;;;;;12.90;7.20;;;;;;;0.56;66.71;101273.05;110612;1261;24436;-81
2023/02/27 05:07:39;;;;;;;8.70;6.50;;;;;;;0.56;66.91;101272.70;110874;1257;21990;-80
2023/02/27 05:10:35;;;;;;;9.40;5.90;;;;;;;0.59;66.96;101271.04;110476;1264;21995;-79
2023/02/27 05:13:25;;;;;;;9.70;7.70;;;;;;;0.60;66.87;101271.58;110256;1262;21983;-80
2023/02/27 05:16:22;;;;;;;7.90;5.80;;;;;;;0.59;66.86;101274.80;110497;1263;21982;-78
2023/02/27 05:19:02;;;;;;;11.20;6.90;;;;;;;0.56;66.84;101278.52;110536;1262;23628;-80
2023/02/27 05:21:56;;;;;;;8.10;5.30;;;;;;;0.55;66.92;101279.71;110736;1263;21980;-78
2023/02/27 05:25:01;;;;;;;12.60;5.60;;;;;;;0.54;66.88;101287.91;109884;1263;23732;-78
2023/02/27 05:27:45;;;;;;;9.90;7.00;;;;;;;0.51;66.82;101287.70;109975;1264;22015;-81
2023/02/27 05:30:50;;;;;;;11.40;6.90;;;;;;;0.46;66.95;101289.64;110747;1264;21976;-80
2023/02/27 05:34:15;;;;;;;12.20;7.50;;;;;;;0.45;67.15;101296.65;110818;1263;21974;-79
2023/02/27 05:37:19;;;;;;;14.10;8.50;;;;;;;0.44;67.27;101298.00;110456;1267;23792;-82
2023/02/27 05:40:07;;;;;;;13.90;7.70;;;;;;;0.45;67.34;101302.98;109566;1271;22038;-80
2023/02/27 05:42:45;;;;;;;14.80;7.00;;;;;;;0.44;67.31;101307.08;109617;1268;21973;-82
2023/02/27 05:45:36;;;;;;;12.90;6.80;;;;;;;0.46;67.39;101307.63;110449;1268;22015;-80
2023/02/27 05:48:46;;;;;;;16.10;9.30;;;;;;;0.47;67.48;101312.59;109399;1274;22922;-81
2023/02/27 05:51:34;;;;;;;22.90;11.50;;;;;;;0.46;67.49;101318.42;108868;1282;21995;-82
2023/02/27 05:54:38;;;;;;;15.90;10.30;;;;;;;0.45;67.56;101320.98;108833;1282;23043;-81
2023/02/27 05:58:26;;;;;;;17.10;10.20;;;;;;;0.44;67.62;101324.89;108841;1279;22767;-80
2023/02/27 06:01:04;;;;;;;15.60;10.00;;;;;;;0.43;67.50;101326.73;108485;1283;21992;-80
2023/02/27 06:03:51;;;;;;;15.90;9.50;;;;;;;0.45;67.56;101328.67;108758;1283;22012;-80
2023/02/27 06:06:34;;;;;;;13.10;9.90;;;;;;;0.44;67.61;101328.50;108987;1273;23010;-80
2023/02/27 06:09:07;;;;;;;14.30;9.00;;;;;;;0.45;67.73;101333.14;109570;1270;21987;-81
2023/02/27 06:11:53;;;;;;;18.70;11.30;;;;;;;0.46;67.76;101336.23;109195;1273;22751;-82
2023/02/27 06:14:27;;;;;;;17.60;10.80;;;;;;;0.45;67.65;101335.01;109127;1278;22013;-80
2023/02/27 06:17:09;;;;;;;15.10;10.70;;;;;;;0.41;67.55;101336.98;109150;1278;22001;-80
2023/02/27 06:19:43;;;;;;;18.30;11.90;;;;;;;0.39;67.72;101335.59;109282;1278;22011;-80
2023/02/27 06:22:20;;;;;;;41.50;17.70;;;;;;;0.40;67.82;101336.29;109164;1278;22022;-80
2023/02/27 06:24:54;;;;;;;39.70;19.70;;;;;;;0.41;67.86;101335.61;109107;1278;23627;-81
2023/02/27 06:27:40;;;;;;;44.20;22.60;;;;;;;0.46;68.21;101335.73;109152;1270;23103;-80
2023/02/27 06:30:25;;;;;;;44.70;28.70;;;;;;;0.52;68.22;101341.31;109718;1270;21984;-80
2023/02/27 06:33:11;;;;;;;27.10;20.30;;;;;;;0.57;68.20;101343.29;109897;1270;21993;-81
2023/02/27 06:35:59;;;;;;;24.80;17.70;;;;;;;0.58;68.31;101343.65;109154;1275;21995;-80
2023/02/27 06:38:36;;;;;;;26.60;19.00;;;;;;;0.62;68.21;101346.30;109597;1267;22015;-80
2023/02/27 06:41:19;;;;;;;28.90;20.50;;;;;;;0.62;68.11;101346.13;110014;1266;21985;-80
2023/02/27 06:43:54;;;;;;;28.80;21.10;;;;;;;0.64;68.26;101344.61;110230;1267;22150;-81
2023/02/27 06:46:30;;;;;;;32.60;19.30;;;;;;;0.69;68.32;101347.30;110114;1261;22307;-80
2023/02/27 06:49:06;;;;;;;26.90;19.00;;;;;;;0.75;68.18;101346.37;109964;1267;24591;-80
2023/02/27 06:51:50;;;;;;;38.00;20.70;;;;;;;0.74;68.06;101344.46;110213;1262;22087;-81
2023/02/27 06:54:27;;;;;;;33.00;19.60;;;;;;;0.74;67.98;101348.07;110870;1257;21964;-81
2023/02/27 06:57:04;;;;;;;28.80;18.70;;;;;;;0.76;68.16;101351.02;110491;1262;21973;-80
2023/02/27 06:59:34;;;;;;;37.20;20.70;;;;;;;0.78;68.15;101350.02;110708;1262;21990;-80
2023/02/27 07:02:18;;;;;;;36.30;21.10;;;;;;;0.83;68.29;101350.95;110766;1257;21986;-80
2023/02/27 07:05:03;;;;;;;34.40;17.20;;;;;;;0.89;68.35;101358.26;110559;1262;21987;-78
2023/02/27 07:07:48;;;;;;;32.20;17.80;;;;;;;0.94;68.37;101359.74;110845;1262;22162;-81
2023/02/27 07:10:47;;;;;;;;;;;;;;;;;;;;;
2023/02/27 07:13:53;;;;;;;30.10;17.90;;;;;;;0.87;68.03;101357.55;110635;1255;22334;-81
2023/02/27 07:16:37;;;;;;;25.30;16.90;;;;;;;0.87;68.24;101361.33;110605;1265;23602;-80
2023/02/27 07:20:10;;;;;;;29.30;17.20;;;;;;;0.92;68.32;101366.89;110150;1270;22011;-80
2023/02/27 07:23:34;;;;;;;27.20;15.90;;;;;;;0.93;68.35;101377.20;110108;1270;21985;-81
2023/02/27 07:26:52;;;;;;;31.00;16.80;;;;;;;0.95;68.38;101386.67;109961;1266;21961;-80
2023/02/27 07:29:38;;;;;;;22.90;16.30;;;;;;;1.04;68.47;101387.67;109457;1271;23859;-79
2023/02/27 07:32:43;;;;;;;19.90;14.70;;;;;;;1.15;68.53;101394.89;109509;1274;21982;-79
2023/02/27 07:35:49;;;;;;;24.10;17.00;;;;;;;1.26;68.59;101393.02;109059;1279;22347;-80
2023/02/27 07:38:27;;;;;;;21.90;16.20;;;;;;;1.38;68.57;101397.17;109503;1272;22021;-79
2023/02/27 07:41:17;;;;;;;16.60;13.80;;;;;;;1.49;68.52;101397.88;109667;1271;21979;-80
2023/02/27 07:44:14;;;;;;;17.40;15.50;;;;;;;1.53;68.20;101397.95;109818;1271;22996;-80
2023/02/27 07:47:22;;;;;;;24.90;16.50;;;;;;;1.53;67.96;101400.00;109848;1271;23720;-81
2023/02/27 07:50:05;;;;;;;;;;;;;;;;;;;;;
2023/02/27 07:53:24;;;;;;;18.40;14.00;;;;;;;1.54;67.94;101406.87;110002;1265;21984;-80
2023/02/27 07:56:29;;;;;;;;;;;;;;;;;;;;;
2023/02/27 07:59:49;;;;;;;20.70;15.70;;;;;;;1.60;67.81;101410.23;110666;1252;22960;-80
2023/02/27 08:02:47;;;;;;;24.50;18.00;;;;;;;1.62;67.70;101408.05;110867;1253;22025;-80
2023/02/27 08:05:29;;;;;;;26.40;19.80;;;;;;;1.65;67.62;101415.80;111132;1257;22314;-79
2023/02/27 08:08:44;;;;;;;18.20;15.10;;;;;;;1.72;67.73;101420.21;110234;1262;22081;-76
2023/02/27 08:11:50;;;;;;;21.20;18.00;;;;;;;1.78;67.64;101423.20;109845;1269;21979;-76
2023/02/27 08:14:35;;;;;;;21.60;18.40;;;;;;;1.78;67.32;101423.21;109945;1269;23644;-79
2023/02/27 08:17:31;;;;;;;17.50;14.90;;;;;;;1.76;67.33;101425.08;110038;1269;22005;-81
2023/02/27 08:20:23;;;;;;;15.50;13.60;;;;;;;1.85;67.58;101427.79;109947;1269;22444;-80
2023/02/27 08:23:28;;;;;;;13.30;11.10;;;;;;;1.97;67.46;101432.08;109967;1256;22049;-81
2023/02/27 08:26:44;;;;;;;15.70;12.70;;;;;;;1.98;67.05;101431.26;110321;1263;22868;-80
2023/02/27 08:30:03;;;;;;;14.60;12.30;;;;;;;1.95;66.88;101431.36;110675;1264;22030;-80
2023/02/27 08:33:39;;;;;;;15.60;12.80;;;;;;;2.03;67.29;101437.31;110964;1263;21970;-80
2023/02/27 08:36:53;;;;;;;18.00;12.40;;;;;;;2.19;67.41;101443.91;110970;1264;22031;-80
2023/02/27 08:40:17;;;;;;;16.10;11.40;;;;;;;2.33;67.21;101443.23;110877;1263;23021;-80
2023/02/27 08:43:34;;;;;;;15.90;12.60;;;;;;;2.41;66.73;101444.38;110747;1264;21991;-79
2023/02/27 08:50:46;;;;;;;11.20;10.00;;;;;;;2.34;65.78;101449.26;110839;1263;22080;-80
2023/02/27 08:54:36;;;;;;;16.90;11.40;;;;;;;2.22;65.56;101455.61;110829;1263;24306;-81
2023/02/27 09:01:18;;;;;;;11.80;10.40;;;;;;;2.16;65.57;101454.34;107362;1263;4486905;-80
2023/02/27 09:04:22;;;;;;;17.00;10.90;;;;;;;2.14;65.38;101458.77;110522;1258;23708;-80
2023/02/27 09:07:18;;;;;;;15.20;12.20;;;;;;;2.10;65.24;101461.29;110589;1263;23039;-80
2023/02/27 09:10:09;;;;;;;13.00;11.30;;;;;;;2.11;65.31;101465.59;110315;1261;21991;-80
2023/02/27 09:13:01;;;;;;;16.90;12.60;;;;;;;2.09;65.26;101467.98;110482;1263;23074;-79
2023/02/27 09:15:41;;;;;;;15.30;12.00;;;;;;;2.10;65.38;101472.12;110549;1263;21937;-79
2023/02/27 09:18:56;;;;;;;12.50;10.20;;;;;;;2.05;65.13;101473.93;110830;1259;22299;-80
2023/02/27 09:21:52;;;;;;;15.10;11.90;;;;;;;1.99;65.25;101478.98;110521;1263;22539;-80
2023/02/27 09:24:55;;;;;;;13.80;11.60;;;;;;;2.02;65.48;101479.89;110796;1263;21978;-80
2023/02/27 09:28:21;;;;;;;;;;;;;;;;;;;;;
2023/02/27 09:31:16;;;;;;;14.20;11.80;;;;;;;1.99;65.59;101490.14;111113;1257;22021;-80
2023/02/27 09:34:20;;;;;;;15.50;12.10;;;;;;;2.07;65.90;101486.48;111093;1257;21981;-80
2023/02/27 09:37:25;;;;;;;;;;;;;;;;;;;;;
2023/02/27 09:40:33;;;;;;;16.80;14.80;;;;;;;2.29;66.02;101488.70;111195;1257;22956;-80
2023/02/27 09:43:48;;;;;;;18.10;14.80;;;;;;;2.44;66.06;101495.95;111108;1255;22737;-80
2023/02/27 09:46:38;;;;;;;13.90;10.80;;;;;;;2.55;65.83;101497.81;111070;1254;22030;-81
2023/02/27 09:49:32;;;;;;;16.80;10.80;;;;;;;2.63;65.80;101500.69;111117;1257;21987;-79
2023/02/27 09:52:21;;;;;;;18.10;13.50;;;;;;;2.76;65.88;101504.45;111130;1257;24484;-78
2023/02/27 09:55:23;;;;;;;15.40;12.40;;;;;;;2.88;65.62;101506.67;111177;1257;22367;-81
2023/02/27 09:58:15;;;;;;;12.70;10.80;;;;;;;2.86;64.89;101508.37;111005;1257;21977;-78
2023/02/27 10:01:13;;;;;;;16.70;11.70;;;;;;;2.76;64.70;101509.11;111195;1257;23589;-81
2023/02/27 10:04:36;;;;;;;11.20;9.70;;;;;;;2.87;65.15;101509.23;110822;1261;23738;-80
2023/02/27 10:07:47;;;;;;;12.40;8.50;;;;;;;3.14;65.08;101512.48;110328;1264;23844;-77
2023/02/27 10:11:10;;;;;;;9.80;8.20;;;;;;;3.51;65.11;101507.70;109352;1270;24400;-77
2023/02/27 10:14:28;;;;;;;8.80;7.50;;;;;;;3.96;64.19;101508.61;109365;1273;22192;-78
2023/02/27 10:17:49;;;;;;;10.10;7.70;;;;;;;4.27;63.27;101505.23;109376;1273;22021;-76
2023/02/27 10:20:49;;;;;;;9.30;8.00;;;;;;;4.79;63.35;101506.37;109034;1275;22779;-77
2023/02/27 10:24:29;;;;;;;12.10;9.30;;;;;;;5.49;62.59;101502.44;108934;1276;23040;-77
2023/02/27 10:27:04;;;;;;;9.20;7.30;;;;;;;6.25;60.98;101504.02;108627;1282;22049;-77
2023/02/27 10:30:16;;;;;;;7.30;6.50;;;;;;;6.98;59.69;101504.33;108653;1283;22026;-75
2023/02/27 10:33:21;;;;;;;8.70;5.90;;;;;;;7.36;56.30;101502.05;108538;1282;22064;-76
2023/02/27 10:36:10;;;;;;;7.80;5.80;;;;;;;7.00;54.59;101498.27;108913;1279;22115;-74
2023/02/27 10:39:22;;;;;;;9.20;5.20;;;;;;;6.72;54.10;101497.70;109026;1273;22762;-76
2023/02/27 10:42:18;;;;;;;8.10;5.60;;;;;;;6.37;53.18;101501.59;109302;1273;23715;-77
2023/02/27 10:45:02;;;;;;;10.80;6.40;;;;;;;5.88;52.77;101500.59;109648;1266;22158;-77
2023/02/27 10:48:05;;;;;;;;;;;;;;;;;;;;;
2023/02/27 10:51:13;;;;;;;9.30;4.90;;;;;;;5.26;53.45;101506.20;109905;1266;21984;-77
2023/02/27 10:54:35;;;;;;;11.10;7.30;;;;;;;5.22;54.56;101499.27;110395;1266;22759;-77
2023/02/27 10:57:47;;;;;;;6.70;4.80;;;;;;;6.68;57.07;101495.54;110073;1261;23668;-76
2023/02/27 11:01:07;;;;;;;5.70;4.30;;;;;;;7.74;53.37;101493.30;110148;1265;21986;-76
2023/02/27 11:04:05;;;;;;;7.10;4.30;;;;;;;7.94;51.83;101492.80;110521;1261;23835;-77
2023/02/27 11:07:02;;;;;;;7.10;3.50;;;;;;;8.94;51.29;101491.90;110897;1254;22952;-77
2023/02/27 11:10:16;;;;;;;5.50;3.40;;;;;;;9.15;47.73;101498.09;110846;1257;22016;-77
2023/02/27 11:13:25;;;;;;;3.80;2.60;;;;;;;8.57;46.63;101496.20;110985;1257;24112;-78
2023/02/27 11:16:52;;;;;;;;;;;;;;;;;;;;;
2023/02/27 11:19:46;;;;;;;4.70;3.30;;;;;;;8.84;45.71;101497.27;111189;1257;21979;-76
2023/02/27 11:23:14;;;;;;;10.70;3.50;;;;;;;8.27;43.51;101492.14;110895;1253;22969;-77
2023/02/27 11:26:34;;;;;;;;;;;;;;;;;;;;;
2023/02/27 11:30:01;;;;;;;8.50;5.50;;;;;;;6.44;43.90;101498.98;110928;1257;21973;-74
2023/02/27 11:33:41;;;;;;;6.10;3.30;;;;;;;5.88;44.67;101499.38;111053;1257;21990;-76
2023/02/27 11:36:59;;;;;;;8.00;3.90;;;;;;;5.36;45.13;101498.44;110754;1257;22630;-77
2023/02/27 11:40:29;;;;;;;;;;;;;;;;;;;;;
2023/02/27 11:44:23;;;;;;;7.30;4.60;;;;;;;4.40;46.37;101498.58;110942;1257;21970;-75
2023/02/27 11:47:51;;;;;;;;;;;;;;;;;;;;;
2023/02/27 11:51:50;;;;;;;7.20;4.30;;;;;;;3.71;47.40;101497.73;110806;1257;23044;-76
2023/02/27 11:55:20;;;;;;;5.60;3.80;;;;;;;3.42;47.78;101499.36;110784;1252;21970;-77
2023/02/27 11:58:34;;;;;;;4.30;2.90;;;;;;;3.20;48.09;101495.87;110967;1257;23050;-77
2023/02/27 12:02:20;;;;;;;6.60;3.60;;;;;;;3.10;48.31;101495.42;110830;1257;23566;-77
2023/02/27 12:05:41;;;;;;;5.80;2.50;;;;;;;3.06;48.43;101493.47;110959;1257;21983;-77
2023/02/27 12:14:37;;;;;;;10.20;5.10;;;;;;;3.10;48.30;101490.77;109238;1274;22754;-78
2023/02/27 12:17:51;;;;;;;8.10;4.30;;;;;;;3.18;48.06;101493.09;109166;1274;22726;-75
2023/02/27 12:20:33;;;;;;;7.20;4.30;;;;;;;3.23;47.76;101495.73;109142;1274;23729;-76
2023/02/27 12:23:47;;;;;;;4.50;2.90;;;;;;;3.27;47.65;101497.83;109108;1274;22007;-76
2023/02/27 12:26:46;;;;;;;8.80;7.70;;;;;;;3.34;47.47;101500.31;109147;1275;21980;-75
2023/02/27 12:29:32;;;;;;;7.40;6.00;;;;;;;3.35;47.20;101495.49;109058;1275;21996;-78
2023/02/27 12:32:26;;;;;;;6.80;3.40;;;;;;;3.40;47.04;101491.42;109390;1270;21982;-77
2023/02/27 12:35:44;;;;;;;9.20;3.80;;;;;;;3.45;46.82;101495.27;109672;1270;22906;-78
2023/02/27 12:39:27;;;;;;;11.30;3.20;;;;;;;3.55;46.85;101492.27;109212;1274;23724;-76
2023/02/27 12:43:44;;;;;;;12.90;7.30;;;;;;;3.70;46.70;101495.84;108762;1279;23049;-77
2023/02/27 12:47:43;;;;;;;;;;;;;;;;;;;;;
2023/02/27 12:54:37;;;;;;;5.60;2.80;;;;;;;3.77;45.81;101499.86;108356;1287;22019;-77
2023/02/27 12:58:37;;;;;;;4.30;2.60;;;;;;;3.97;45.32;101500.54;107863;1289;549681;-77
2023/02/27 13:02:21;;;;;;;5.90;3.10;;;;;;;3.88;45.14;101504.08;109427;1273;21985;-76
2023/02/27 13:14:00;;;;;;;6.60;2.80;;;;;;;3.77;44.70;101506.73;106281;1272;22830;-76
2023/02/27 13:17:09;;;;;;;3.90;2.40;;;;;;;3.82;44.70;101505.23;109186;1273;23656;-75
2023/02/27 13:19:51;;;;;;;6.30;3.10;;;;;;;3.91;44.49;101504.27;109385;1268;23037;-76
2023/02/27 13:22:45;;;;;;;4.30;2.70;;;;;;;3.96;44.22;101503.63;109397;1272;22078;-77
2023/02/27 13:25:51;;;;;;;;;;;;;;;;;;;;;
2023/02/27 13:29:06;;;;;;;;;;;;;;;;;;;;;
2023/02/27 13:33:07;;;;;;;3.90;2.50;;;;;;;3.70;43.62;101503.76;110334;1266;21980;-77
2023/02/27 13:37:02;;;;;;;;;;;;;;;;;;;;;
2023/02/27 13:40:40;;;;;;;8.20;2.70;;;;;;;3.40;44.40;101506.91;109091;1274;22013;-76
2023/02/27 13:44:22;;;;;;;4.70;3.00;;;;;;;3.33;44.66;101508.90;109175;1273;21992;-77
2023/02/27 13:52:01;;;;;;;24.50;15.90;;;;;;;3.34;45.30;101511.49;109351;1273;21986;-78
2023/02/27 13:55:42;;;;;;;10.40;6.10;;;;;;;3.36;45.66;101509.80;108783;1279;22073;-76
2023/02/27 13:59:55;;;;;;;;;;;;;;;;;;;;;
2023/02/27 14:04:01;;;;;;;11.90;7.60;;;;;;;3.16;45.76;101514.56;108796;1280;22864;-77
2023/02/27 14:08:18;;;;;;;9.00;5.00;;;;;;;3.02;46.04;101518.17;108513;1284;22016;-77
2023/02/27 14:15:13;;;;;;;10.90;6.20;;;;;;;2.86;46.67;101523.66;108515;1283;22087;-76
2023/02/27 14:19:05;;;;;;;19.70;10.30;;;;;;;2.78;47.04;101524.77;109177;1275;23638;-77
2023/02/27 14:23:39;;;;;;;;;;;;;;;;;;;;;
2023/02/27 14:26:40;;;;;;;17.10;7.50;;;;;;;2.72;47.89;101535.69;108451;1285;23803;-76
2023/02/27 14:29:32;;;;;;;14.80;9.10;;;;;;;2.77;48.08;101537.66;108108;1289;22093;-75
2023/02/27 14:32:09;;;;;;;17.50;8.90;;;;;;;2.84;48.44;101541.70;108138;1289;21983;-77
2023/02/27 14:35:02;;;;;;;9.30;5.70;;;;;;;2.87;48.50;101547.93;108051;1289;21965;-77
2023/02/27 14:41:23;;;;;;;;;;;;;;;;;;;;;
2023/02/27 14:44:43;;;;;;;7.10;4.50;;;;;;;2.75;48.61;101548.12;108399;1287;23623;-75
2023/02/27 14:48:03;;;;;;;;;;;;;;;;;;;;;
2023/02/27 14:56:07;;;;;;;9.80;5.30;;;;;;;2.71;48.46;101558.20;108235;1287;22013;-81
2023/02/27 15:00:23;;;;;;;7.10;4.70;;;;;;;2.68;48.65;101567.62;108473;1290;22010;-80
2023/02/27 15:03:33;;;;;;;9.70;6.10;;;;;;;2.69;48.72;101570.55;107827;1295;22052;-78